createdAt,value
2017-09-30T00:01:38.885Z,11.17
2017-09-30T00:04:07.052Z,12.93
2017-09-30T00:06:35.190Z,14.00
2017-09-30T00:09:03.328Z,15.00
2017-09-30T00:11:31.791Z,15.70
2017-09-30T00:13:59.948Z,14.60
2017-09-30T00:16:28.094Z,15.27
2017-09-30T00:18:57.312Z,14.57
2017-09-30T00:21:25.457Z,13.40
2017-09-30T00:23:54.379Z,15.87
2017-09-30T00:26:22.560Z,13.37
2017-09-30T00:28:51.147Z,12.20
2017-09-30T00:31:19.286Z,13.63
2017-09-30T00:33:48.206Z,12.80
2017-09-30T00:36:16.364Z,11.30
2017-09-30T00:38:44.486Z,12.70
2017-09-30T00:41:12.649Z,10.57
2017-09-30T00:43:40.816Z,14.73
2017-09-30T00:46:08.967Z,13.00
2017-09-30T00:48:37.436Z,11.90
2017-09-30T00:51:05.556Z,11.17
2017-09-30T00:53:33.700Z,10.43
2017-09-30T00:56:01.902Z,10.83
2017-09-30T00:58:30.045Z,13.37
2017-09-30T01:00:58.192Z,12.27
2017-09-30T01:03:26.353Z,11.10
2017-09-30T01:05:54.492Z,11.77
2017-09-30T01:08:22.935Z,12.13
2017-09-30T01:10:51.099Z,11.40
2017-09-30T01:13:19.285Z,11.20
2017-09-30T01:15:47.493Z,11.80
2017-09-30T01:18:16.404Z,11.80
2017-09-30T01:20:45.307Z,13.40
2017-09-30T01:23:13.513Z,12.57
2017-09-30T01:25:41.661Z,10.10
2017-09-30T01:28:09.846Z,11.70
2017-09-30T01:30:37.979Z,11.50
2017-09-30T01:33:06.385Z,10.27
2017-09-30T02:28:39.576Z,10.00
2017-09-30T02:31:07.703Z,9.50
2017-09-30T02:33:35.853Z,9.67
2017-09-30T02:36:04.034Z,11.20
2017-09-30T02:38:32.174Z,9.03
2017-09-30T02:41:00.363Z,9.47
2017-09-30T02:43:28.496Z,7.20
2017-09-30T02:45:57.414Z,9.73
2017-09-30T02:48:26.194Z,6.60
2017-09-30T02:50:54.334Z,8.50
2017-09-30T02:53:24.020Z,10.60
2017-09-30T02:55:52.934Z,11.90
2017-09-30T02:58:21.208Z,10.07
2017-09-30T03:00:49.347Z,8.03
2017-09-30T03:03:17.472Z,7.87
2017-09-30T03:05:45.750Z,10.37
2017-09-30T03:08:13.886Z,8.57
2017-09-30T03:10:42.807Z,8.80
2017-09-30T03:13:10.970Z,10.00
2017-09-30T03:15:39.108Z,11.00
2017-09-30T03:18:07.283Z,8.60
2017-09-30T03:20:35.422Z,8.97
2017-09-30T03:23:03.550Z,7.43
2017-09-30T03:25:31.704Z,9.60
2017-09-30T03:28:00.601Z,9.07
2017-09-30T03:30:28.775Z,8.97
2017-09-30T03:32:56.941Z,8.60
2017-09-30T03:35:25.830Z,8.90
2017-09-30T03:37:54.742Z,8.20
2017-09-30T03:40:22.899Z,9.03
2017-09-30T03:42:51.787Z,8.83
2017-09-30T03:45:20.709Z,8.03
2017-09-30T03:47:48.837Z,7.00
2017-09-30T03:50:17.879Z,8.20
2017-09-30T03:52:46.031Z,7.57
2017-09-30T03:55:14.170Z,8.40
2017-09-30T03:57:43.113Z,8.37
2017-09-30T04:00:11.241Z,8.10
2017-09-30T04:02:40.265Z,6.17
2017-09-30T04:05:08.418Z,7.90
2017-09-30T04:07:36.551Z,8.80
2017-09-30T04:10:04.812Z,8.50
2017-09-30T04:12:32.950Z,7.00
2017-09-30T04:15:01.085Z,7.77
2017-09-30T04:17:30.012Z,7.43
2017-09-30T04:19:58.162Z,9.23
2017-09-30T04:22:26.292Z,6.97
2017-09-30T04:24:54.442Z,6.87
2017-09-30T04:27:22.589Z,5.77
2017-09-30T04:29:50.720Z,9.60
2017-09-30T04:32:18.992Z,7.77
2017-09-30T04:34:47.129Z,11.20
2017-09-30T04:37:15.275Z,7.10
2017-09-30T04:39:43.454Z,9.10
2017-09-30T04:42:11.595Z,9.20
2017-09-30T04:44:40.533Z,8.97
2017-09-30T04:47:08.665Z,7.77
2017-09-30T04:49:37.560Z,8.10
2017-09-30T04:52:06.219Z,9.47
2017-09-30T04:54:34.336Z,7.50
2017-09-30T04:57:02.466Z,7.90
2017-09-30T04:59:31.408Z,9.77
2017-09-30T05:01:59.546Z,7.97
2017-09-30T05:04:27.672Z,7.33
2017-09-30T05:06:55.837Z,8.13
2017-09-30T05:09:23.982Z,7.63
2017-09-30T05:11:52.281Z,9.30
2017-09-30T05:14:20.433Z,7.67
2017-09-30T05:16:48.571Z,8.27
2017-09-30T05:19:17.511Z,8.50
2017-09-30T05:21:45.637Z,6.67
2017-09-30T05:24:14.541Z,9.57
2017-09-30T05:26:42.665Z,8.93
2017-09-30T05:29:10.825Z,9.10
2017-09-30T05:31:38.964Z,7.60
2017-09-30T05:34:07.113Z,8.00
2017-09-30T05:36:35.391Z,9.53
2017-09-30T05:39:03.582Z,8.73
2017-09-30T05:41:31.727Z,6.17
2017-09-30T05:44:00.759Z,8.87
2017-09-30T05:46:28.894Z,8.97
2017-09-30T05:48:57.025Z,9.13
2017-09-30T05:51:25.312Z,10.20
2017-09-30T05:53:53.460Z,9.20
2017-09-30T05:56:21.599Z,9.83
2017-09-30T05:58:49.811Z,7.67
2017-09-30T06:01:17.944Z,8.00
2017-09-30T06:03:46.237Z,7.90
2017-09-30T06:06:14.390Z,7.90
2017-09-30T06:08:42.509Z,6.90
2017-09-30T06:11:10.668Z,7.20
2017-09-30T06:13:38.789Z,8.20
2017-09-30T06:16:07.231Z,8.40
2017-09-30T06:18:35.487Z,10.03
2017-09-30T06:21:04.515Z,7.80
2017-09-30T06:23:32.676Z,7.97
2017-09-30T06:26:00.843Z,6.93
2017-09-30T06:28:28.977Z,9.80
2017-09-30T06:30:57.150Z,7.03
2017-09-30T06:33:25.299Z,10.00
2017-09-30T06:35:53.484Z,9.30
2017-09-30T06:38:21.651Z,9.00
2017-09-30T06:40:49.805Z,10.70
2017-09-30T06:43:17.984Z,10.23
2017-09-30T06:45:46.134Z,8.27
2017-09-30T06:48:15.029Z,7.60
2017-09-30T06:50:43.961Z,7.00
2017-09-30T06:53:12.103Z,6.53
2017-09-30T06:55:40.275Z,7.50
2017-09-30T06:58:08.404Z,7.73
2017-09-30T07:00:36.675Z,7.50
2017-09-30T07:03:04.829Z,6.70
2017-09-30T07:05:33.715Z,7.00
2017-09-30T07:08:01.875Z,8.90
2017-09-30T07:10:30.023Z,5.93
2017-09-30T07:12:58.321Z,6.83
2017-09-30T07:15:26.487Z,9.90
2017-09-30T07:17:54.758Z,8.90
2017-09-30T07:20:22.898Z,6.13
2017-09-30T07:22:51.808Z,11.10
2017-09-30T07:25:19.973Z,9.47
2017-09-30T07:27:48.094Z,8.80
2017-09-30T07:30:16.254Z,6.90
2017-09-30T07:32:44.372Z,7.30
2017-09-30T07:35:13.314Z,8.37
2017-09-30T07:37:41.471Z,7.13
2017-09-30T07:40:09.600Z,7.30
2017-09-30T07:42:38.640Z,6.03
2017-09-30T07:45:06.793Z,6.57
2017-09-30T07:47:34.946Z,6.70
2017-09-30T07:50:03.885Z,9.03
2017-09-30T07:52:32.028Z,5.80
2017-09-30T07:55:00.285Z,8.07
2017-09-30T07:57:29.208Z,6.80
2017-09-30T07:59:57.421Z,6.37
2017-09-30T08:02:25.684Z,6.67
2017-09-30T08:04:53.810Z,8.63
2017-09-30T08:07:21.927Z,7.50
2017-09-30T08:09:50.114Z,6.00
2017-09-30T08:12:18.249Z,6.70
2017-09-30T08:14:46.503Z,8.87
2017-09-30T08:17:14.654Z,7.00
2017-09-30T08:19:42.800Z,6.43
2017-09-30T08:22:10.969Z,5.20
2017-09-30T08:24:39.094Z,6.27
2017-09-30T08:27:07.263Z,7.83
2017-09-30T08:29:35.439Z,5.37
2017-09-30T08:32:03.570Z,6.20
2017-09-30T08:34:32.495Z,6.47
2017-09-30T08:37:00.638Z,5.40
2017-09-30T08:39:29.594Z,6.30
2017-09-30T08:41:57.754Z,5.87
2017-09-30T08:44:25.908Z,8.93
2017-09-30T08:46:54.073Z,7.00
2017-09-30T08:49:22.219Z,8.40
2017-09-30T08:51:51.144Z,9.03
2017-09-30T08:54:19.283Z,6.00
2017-09-30T08:56:48.408Z,7.00
2017-09-30T08:59:16.549Z,7.77
2017-09-30T09:01:44.698Z,8.23
2017-09-30T09:04:13.651Z,6.80
2017-09-30T09:06:41.859Z,9.50
2017-09-30T09:09:10.017Z,12.17
2017-09-30T09:11:38.177Z,9.03
2017-09-30T09:14:06.310Z,8.20
2017-09-30T09:16:34.574Z,6.50
2017-09-30T09:19:02.705Z,7.60
2017-09-30T09:21:30.835Z,7.27
2017-09-30T09:23:59.008Z,8.00
2017-09-30T09:26:27.140Z,6.00
2017-09-30T09:28:56.041Z,6.03
2017-09-30T09:31:24.977Z,7.70
2017-09-30T09:33:53.106Z,7.77
2017-09-30T09:36:21.242Z,7.70
2017-09-30T09:38:49.508Z,7.90
2017-09-30T09:41:17.647Z,9.33
2017-09-30T09:43:45.800Z,6.13
2017-09-30T09:46:14.021Z,11.67
2017-09-30T09:48:42.982Z,9.10
2017-09-30T09:51:11.136Z,8.87
2017-09-30T09:53:39.408Z,10.47
2017-09-30T09:56:08.316Z,10.83
2017-09-30T09:58:36.444Z,11.00
2017-09-30T10:01:04.612Z,7.90
2017-09-30T10:03:32.746Z,9.00
2017-09-30T10:06:00.921Z,8.57
2017-09-30T10:08:29.062Z,10.23
2017-09-30T10:10:57.202Z,9.47
2017-09-30T10:13:25.453Z,9.30
2017-09-30T10:15:53.575Z,7.80
2017-09-30T10:18:21.717Z,9.90
2017-09-30T10:20:49.987Z,7.70
2017-09-30T10:23:18.126Z,9.23
2017-09-30T10:25:46.294Z,7.90
2017-09-30T10:28:14.456Z,8.10
2017-09-30T10:30:42.563Z,8.80
2017-09-30T10:33:10.822Z,8.67
2017-09-30T10:35:38.951Z,7.13
2017-09-30T10:38:07.107Z,10.37
2017-09-30T10:40:36.137Z,8.93
2017-09-30T10:43:04.263Z,9.70
2017-09-30T10:45:33.183Z,11.07
2017-09-30T10:48:01.471Z,11.93
2017-09-30T10:50:29.613Z,8.77
2017-09-30T10:52:58.500Z,7.03
2017-09-30T10:55:27.419Z,7.50
2017-09-30T10:57:55.562Z,8.80
2017-09-30T11:00:24.446Z,5.00
2017-09-30T11:02:53.375Z,6.27
2017-09-30T11:05:21.510Z,9.03
2017-09-30T11:07:50.458Z,6.90
2017-09-30T11:10:18.589Z,6.03
2017-09-30T11:12:46.729Z,8.53
2017-09-30T11:15:14.917Z,7.70
2017-09-30T11:17:43.038Z,8.80
2017-09-30T11:20:11.291Z,9.13
2017-09-30T11:22:39.416Z,8.40
2017-09-30T11:25:07.568Z,9.33
2017-09-30T11:27:35.755Z,8.03
2017-09-30T11:30:03.896Z,7.77
2017-09-30T11:32:32.062Z,7.30
2017-09-30T11:35:00.219Z,6.70
2017-09-30T11:37:28.340Z,7.57
2017-09-30T11:39:56.511Z,7.03
2017-09-30T11:42:25.408Z,7.03
2017-09-30T11:44:53.579Z,7.70
2017-09-30T11:47:22.497Z,6.63
2017-09-30T11:49:50.716Z,8.90
2017-09-30T11:52:18.883Z,6.07
2017-09-30T11:54:47.041Z,5.87
2017-09-30T11:57:15.318Z,6.00
2017-09-30T11:59:43.447Z,6.30
2017-09-30T12:02:11.578Z,6.10
2017-09-30T12:04:39.776Z,7.43
2017-09-30T12:07:08.697Z,5.43
2017-09-30T12:09:36.836Z,7.20
2017-09-30T12:12:05.785Z,6.00
2017-09-30T12:14:33.911Z,6.83
2017-09-30T12:17:02.843Z,5.23
2017-09-30T12:19:30.991Z,5.70
2017-09-30T12:21:59.148Z,3.37
2017-09-30T12:24:28.168Z,6.37
2017-09-30T12:26:56.303Z,4.53
2017-09-30T12:29:24.462Z,6.20
2017-09-30T12:31:52.647Z,5.17
2017-09-30T12:34:21.532Z,9.10
2017-09-30T12:36:50.429Z,4.97
2017-09-30T12:39:19.345Z,4.40
2017-09-30T12:41:47.495Z,5.67
2017-09-30T12:44:16.526Z,4.67
2017-09-30T12:46:44.659Z,3.20
2017-09-30T12:49:13.544Z,4.13
2017-09-30T12:51:42.548Z,6.03
2017-09-30T12:54:10.694Z,7.13
2017-09-30T12:56:39.610Z,4.00
2017-09-30T12:59:07.789Z,4.73
2017-09-30T13:01:35.915Z,5.43
2017-09-30T13:04:04.151Z,4.93
2017-09-30T13:06:32.303Z,5.03
2017-09-30T13:09:00.462Z,7.10
2017-09-30T13:11:28.731Z,5.10
2017-09-30T13:13:57.643Z,9.10
2017-09-30T13:16:25.829Z,7.13
2017-09-30T13:18:54.012Z,7.70
2017-09-30T13:21:22.151Z,8.47
2017-09-30T13:23:50.300Z,8.47
2017-09-30T13:26:19.265Z,6.80
2017-09-30T13:28:47.399Z,5.97
2017-09-30T13:31:15.575Z,6.23
2017-09-30T13:33:43.706Z,8.77
2017-09-30T13:36:12.599Z,10.80
2017-09-30T13:38:41.660Z,9.50
2017-09-30T13:41:09.796Z,8.37
2017-09-30T13:43:37.940Z,9.53
2017-09-30T13:46:06.863Z,8.80
2017-09-30T13:48:35.011Z,8.93
2017-09-30T13:51:03.160Z,8.57
2017-09-30T13:53:32.102Z,8.40
2017-09-30T13:56:00.377Z,9.03
2017-09-30T13:58:28.525Z,11.73
2017-09-30T14:00:56.658Z,8.53
2017-09-30T14:03:24.811Z,10.80
2017-09-30T14:05:52.966Z,12.80
2017-09-30T14:08:21.252Z,11.17
2017-09-30T14:10:49.464Z,9.40
2017-09-30T14:13:18.374Z,9.80
2017-09-30T14:15:46.631Z,10.53
2017-09-30T14:18:15.531Z,12.30
2017-09-30T14:20:43.876Z,12.43
2017-09-30T14:23:12.056Z,10.80
2017-09-30T14:25:40.963Z,10.37
2017-09-30T14:28:09.914Z,11.27
2017-09-30T14:30:38.365Z,10.90
2017-09-30T14:33:06.529Z,9.40
2017-09-30T14:35:34.817Z,9.60
2017-09-30T14:38:02.939Z,9.30
2017-09-30T14:40:31.828Z,9.20
2017-09-30T14:43:00.797Z,10.30
2017-09-30T14:45:29.714Z,9.83
2017-09-30T14:47:58.627Z,7.60
2017-09-30T14:50:26.762Z,8.70
2017-09-30T14:52:55.810Z,9.43
2017-09-30T14:55:23.942Z,7.03
2017-09-30T14:57:52.977Z,8.40
2017-09-30T15:00:21.991Z,8.03
2017-09-30T15:02:50.138Z,7.30
2017-09-30T15:05:18.277Z,9.30
2017-09-30T15:07:46.496Z,8.20
2017-09-30T15:10:14.650Z,5.20
2017-09-30T15:12:42.796Z,5.80
2017-09-30T15:15:10.941Z,10.30
2017-09-30T15:17:39.843Z,9.70
2017-09-30T15:20:08.019Z,6.83
2017-09-30T15:22:36.173Z,7.93
2017-09-30T15:25:05.141Z,11.37
2017-09-30T15:27:33.298Z,9.43
2017-09-30T15:30:01.462Z,7.47
2017-09-30T15:32:29.590Z,7.47
2017-09-30T15:34:58.484Z,7.73
2017-09-30T15:37:26.667Z,9.53
2017-09-30T15:39:54.792Z,7.87
2017-09-30T15:42:22.924Z,7.27
2017-09-30T15:44:51.081Z,7.60
2017-09-30T15:47:19.215Z,6.90
2017-09-30T15:49:48.234Z,6.37
2017-09-30T15:52:16.389Z,7.27
2017-09-30T15:54:45.298Z,14.50
2017-09-30T15:57:13.595Z,7.90
2017-09-30T15:59:41.718Z,8.30
2017-09-30T16:02:09.854Z,8.37
2017-09-30T16:04:38.013Z,10.40
2017-09-30T16:07:06.156Z,6.47
2017-09-30T16:09:34.323Z,6.90
2017-09-30T16:12:03.253Z,6.53
2017-09-30T16:14:31.384Z,8.77
2017-09-30T16:17:00.302Z,8.03
2017-09-30T16:19:28.441Z,9.03
2017-09-30T16:21:57.384Z,7.70
2017-09-30T16:24:25.537Z,6.87
2017-09-30T16:26:53.708Z,7.70
2017-09-30T16:29:21.847Z,6.00
2017-09-30T16:31:50.786Z,6.80
2017-09-30T16:34:18.909Z,7.20
2017-09-30T16:36:47.814Z,7.90
2017-09-30T16:39:16.067Z,6.07
2017-09-30T16:41:44.976Z,6.80
2017-09-30T16:44:13.138Z,13.33
2017-09-30T16:46:42.080Z,11.10
2017-09-30T16:49:10.224Z,12.60
2017-09-30T16:51:38.470Z,9.30
2017-09-30T16:54:07.366Z,9.10
2017-09-30T16:56:35.508Z,8.20
2017-09-30T16:59:03.783Z,6.70
2017-09-30T17:01:31.921Z,7.50
2017-09-30T17:04:00.054Z,7.17
2017-09-30T17:06:28.222Z,6.80
2017-09-30T17:08:57.134Z,7.00
2017-09-30T17:11:25.396Z,6.70
2017-09-30T17:13:53.958Z,7.80
2017-09-30T17:16:22.117Z,7.07
2017-09-30T17:18:50.285Z,8.17
2017-09-30T17:21:18.431Z,8.60
2017-09-30T17:23:46.611Z,7.87
2017-09-30T17:26:14.747Z,8.07
2017-09-30T17:28:42.896Z,7.97
2017-09-30T17:31:11.933Z,8.20
2017-09-30T17:33:40.126Z,7.73
2017-09-30T17:36:08.289Z,7.70
2017-09-30T17:38:36.474Z,7.20
2017-09-30T17:41:04.605Z,8.20
2017-09-30T17:43:32.722Z,8.20
2017-09-30T17:46:00.904Z,8.60
2017-09-30T17:48:29.796Z,9.30
2017-09-30T17:50:57.946Z,8.40
2017-09-30T17:53:26.095Z,8.33
2017-09-30T17:55:54.276Z,8.43
2017-09-30T17:58:23.206Z,8.10
2017-09-30T18:00:51.333Z,9.50
2017-09-30T18:03:19.496Z,8.47
2017-09-30T18:05:47.643Z,9.17
2017-09-30T18:08:15.828Z,10.70
2017-09-30T18:10:43.969Z,9.83
2017-09-30T18:13:12.866Z,9.07
2017-09-30T18:15:41.165Z,10.13
2017-09-30T18:18:09.335Z,10.43
2017-09-30T18:20:37.529Z,11.10
2017-09-30T18:23:05.783Z,10.87
2017-09-30T18:25:33.932Z,10.60
2017-09-30T18:28:02.078Z,10.07
2017-09-30T18:30:30.998Z,10.50
2017-09-30T18:32:59.135Z,9.83
2017-09-30T18:35:27.346Z,10.37
2017-09-30T18:37:55.480Z,9.33
2017-09-30T18:40:23.626Z,10.57
2017-09-30T18:42:51.933Z,12.00
2017-09-30T18:45:20.838Z,10.57
2017-09-30T18:47:49.055Z,10.77
2017-09-30T18:50:17.339Z,11.27
2017-09-30T18:52:45.908Z,10.37
2017-09-30T18:55:14.187Z,10.53
2017-09-30T18:57:42.684Z,11.10
2017-09-30T19:00:11.903Z,10.77
2017-09-30T19:02:40.979Z,10.80
2017-09-30T19:05:10.108Z,10.80
2017-09-30T19:07:38.703Z,10.30
2017-09-30T19:10:07.391Z,11.70
2017-09-30T19:12:35.923Z,10.17
2017-09-30T19:15:05.399Z,11.20
2017-09-30T19:17:34.931Z,11.47
2017-09-30T19:20:04.319Z,11.63
2017-09-30T19:22:33.550Z,8.60
2017-09-30T19:25:02.168Z,11.37
2017-09-30T19:27:31.348Z,9.63
2017-09-30T19:30:00.752Z,11.37
2017-09-30T19:32:29.730Z,12.03
2017-09-30T19:34:58.600Z,11.70
2017-09-30T19:37:27.511Z,12.97
2017-09-30T19:39:57.077Z,11.40
2017-09-30T19:42:25.812Z,13.83
2017-09-30T19:44:54.590Z,11.97
2017-09-30T19:47:23.722Z,12.57
2017-09-30T19:49:52.170Z,12.40
2017-09-30T19:52:20.486Z,11.90
2017-09-30T19:54:48.759Z,13.13
2017-09-30T19:57:17.147Z,10.80
2017-09-30T19:59:46.220Z,19.17
2017-09-30T20:02:14.384Z,14.97
2017-09-30T20:04:42.726Z,15.17
2017-09-30T20:07:11.228Z,13.10
2017-09-30T20:09:39.548Z,13.00
2017-09-30T20:12:07.715Z,11.80
2017-09-30T20:14:35.985Z,13.00
2017-09-30T20:17:04.159Z,12.53
2017-09-30T20:19:32.314Z,12.60
2017-09-30T20:22:00.518Z,12.37
2017-09-30T20:24:28.702Z,12.70
2017-09-30T20:26:57.656Z,12.90
2017-09-30T20:29:26.005Z,12.27
2017-09-30T20:31:54.231Z,13.70
2017-09-30T20:34:23.167Z,13.70
2017-09-30T20:36:51.361Z,12.20
2017-09-30T20:39:19.608Z,12.50
2017-09-30T20:41:47.775Z,13.70
2017-09-30T20:44:16.072Z,11.80
2017-09-30T20:46:44.209Z,13.50
2017-09-30T20:49:12.354Z,14.37
2017-09-30T20:51:40.529Z,15.40
2017-09-30T20:54:09.436Z,14.40
2017-09-30T20:56:37.622Z,17.00
2017-09-30T20:59:05.757Z,15.37
2017-09-30T21:01:33.891Z,16.83
2017-09-30T21:04:02.060Z,11.00
2017-09-30T21:06:30.191Z,16.97
2017-09-30T21:08:59.135Z,12.63
2017-09-30T21:11:27.309Z,15.53
2017-09-30T21:13:56.234Z,13.87
2017-09-30T21:16:25.267Z,13.37
2017-09-30T21:18:53.409Z,11.93
2017-09-30T21:21:21.558Z,11.27
2017-09-30T21:23:49.713Z,9.10
2017-09-30T21:26:17.849Z,7.73
2017-09-30T21:28:46.030Z,9.10
2017-09-30T21:31:14.184Z,7.67
2017-09-30T21:33:42.305Z,8.27
2017-09-30T21:36:10.476Z,6.77
2017-09-30T21:38:38.713Z,8.00
2017-09-30T21:41:06.988Z,10.03
2017-09-30T21:43:35.137Z,7.60
2017-09-30T21:46:03.269Z,4.80
2017-09-30T21:48:31.410Z,8.60
2017-09-30T21:50:59.562Z,4.47
2017-09-30T21:53:27.760Z,6.60
2017-09-30T21:55:55.897Z,6.40
2017-09-30T21:58:24.037Z,5.20
2017-09-30T22:00:52.201Z,6.30
2017-09-30T22:03:20.347Z,5.80
2017-09-30T22:05:48.510Z,4.83
2017-09-30T22:08:16.660Z,6.03
2017-09-30T22:10:44.831Z,6.63
2017-09-30T22:13:12.969Z,4.77
2017-09-30T22:15:41.193Z,4.70
2017-09-30T22:18:09.359Z,5.00
2017-09-30T22:20:37.499Z,4.27
2017-09-30T22:23:06.528Z,4.43
2017-09-30T22:25:34.654Z,4.50
2017-09-30T22:28:03.575Z,4.13
2017-09-30T22:30:31.738Z,6.27
2017-09-30T22:32:59.871Z,5.50
2017-09-30T22:35:28.053Z,7.20
2017-09-30T22:37:56.189Z,4.73
2017-09-30T22:40:24.350Z,6.17
2017-09-30T22:42:53.323Z,7.50
2017-09-30T22:45:21.450Z,5.00
2017-09-30T22:47:49.722Z,5.20
2017-09-30T22:50:17.871Z,4.50
2017-09-30T22:52:46.062Z,5.20
2017-09-30T22:55:14.217Z,5.70
2017-09-30T22:57:42.399Z,4.33
2017-09-30T23:00:10.544Z,3.53
2017-09-30T23:02:38.812Z,6.80
2017-09-30T23:05:06.935Z,6.00
2017-09-30T23:07:35.102Z,4.43
2017-09-30T23:10:03.279Z,6.77
2017-09-30T23:12:32.129Z,6.83
2017-09-30T23:15:00.300Z,6.43
2017-09-30T23:17:28.439Z,6.47
2017-09-30T23:19:56.602Z,4.87
2017-09-30T23:22:25.504Z,4.60
2017-09-30T23:24:53.635Z,4.80
2017-09-30T23:27:21.802Z,4.37
2017-09-30T23:29:49.937Z,5.50
2017-09-30T23:32:18.200Z,6.97
2017-09-30T23:34:46.331Z,4.27
2017-09-30T23:37:15.244Z,4.40
2017-09-30T23:39:43.391Z,5.30
2017-09-30T23:42:11.511Z,4.60
2017-09-30T23:44:39.767Z,5.00
2017-09-30T23:47:08.952Z,3.20
2017-09-30T23:49:37.859Z,4.60
2017-09-30T23:52:06.022Z,3.97
2017-09-30T23:54:34.160Z,3.40
2017-09-30T23:57:02.319Z,3.60
2017-09-30T23:59:30.448Z,3.60
